Time;durP1;ratioP1;P1;durP2;ratioP2;P2;SDS_P1;SDS_P2;PMS_P1;PMS_P2;Temp;Humidity;BMP_temperature;BMP_pressure;BME280_temperature;BME280_humidity;BME280_pressure;Samples;Min_cycle;Max_cycle;Signal;HPM_P1;HPM_P2
2022/10/20 00:02:17;;;;;;;8.30;2.60;;;;;;;6.65;77.27;100995.05;106657;1287;73663;-71
2022/10/20 00:05:04;;;;;;;8.20;2.60;;;;;;;6.66;77.60;100997.66;106675;1274;57290;-72
2022/10/20 00:07:50;;;;;;;8.30;2.20;;;;;;;6.67;77.58;101002.75;106552;1282;58821;-72
2022/10/20 00:10:37;;;;;;;8.40;2.90;;;;;;;6.64;77.62;100999.87;106653;1281;72980;-71
2022/10/20 00:13:24;;;;;;;9.00;2.40;;;;;;;6.63;77.57;101005.38;106666;1281;67733;-71
2022/10/20 00:16:11;;;;;;;10.50;2.30;;;;;;;6.63;77.70;100998.30;106650;1280;73689;-71
2022/10/20 00:18:58;;;;;;;7.10;2.30;;;;;;;6.65;77.63;101001.07;106457;1281;59797;-71
2022/10/20 00:21:44;;;;;;;7.40;2.50;;;;;;;6.66;77.80;100998.52;106675;1273;60309;-71
2022/10/20 00:24:31;;;;;;;8.20;2.40;;;;;;;6.69;77.73;100995.21;106676;1282;73109;-72
2022/10/20 00:27:17;;;;;;;6.80;2.10;;;;;;;6.70;77.72;100992.55;106646;1280;68869;-71
2022/10/20 00:30:05;;;;;;;6.90;1.90;;;;;;;6.70;77.65;100992.02;106464;1281;72821;-72
2022/10/20 00:32:51;;;;;;;7.60;2.10;;;;;;;6.68;77.63;100987.89;106645;1281;59273;-72
2022/10/20 00:35:38;;;;;;;8.10;2.50;;;;;;;6.67;77.47;100989.34;106688;1283;60960;-72
2022/10/20 00:38:24;;;;;;;6.40;2.20;;;;;;;6.65;77.67;100987.47;106669;1281;72852;-71
2022/10/20 00:41:19;;;;;;;7.30;2.30;;;;;;;6.65;77.79;100981.66;106683;1281;67846;-71
2022/10/20 00:44:52;;;;;;;6.80;2.00;;;;;;;6.63;77.84;100981.20;106503;1281;72271;-72
2022/10/20 00:48:06;;;;;;;7.70;2.60;;;;;;;6.61;77.87;100982.02;106689;1281;58865;-73
2022/10/20 00:50:56;;;;;;;7.40;2.20;;;;;;;6.60;77.54;100977.33;106623;1279;59897;-72
2022/10/20 00:53:45;;;;;;;8.70;2.30;;;;;;;6.59;77.97;100973.30;106515;1284;71800;-72
2022/10/20 00:56:32;;;;;;;7.40;2.10;;;;;;;6.55;77.58;100970.64;106648;1279;67774;-70
2022/10/20 00:59:24;;;;;;;7.20;2.30;;;;;;;6.51;77.70;100972.96;106479;1281;72391;-72
2022/10/20 01:02:11;;;;;;;6.80;2.10;;;;;;;6.44;77.95;100974.15;106494;1288;58973;-72
2022/10/20 01:04:58;;;;;;;7.90;2.10;;;;;;;6.37;77.90;100968.13;106676;1281;61252;-72
2022/10/20 01:07:44;;;;;;;7.40;3.00;;;;;;;6.28;78.01;100967.65;106671;1281;74060;-71
2022/10/20 01:10:39;;;;;;;8.50;2.20;;;;;;;6.19;78.05;100963.49;106648;1281;68826;-71
2022/10/20 01:13:53;;;;;;;7.30;2.00;;;;;;;6.07;78.43;100963.65;106507;1283;72693;-72
2022/10/20 01:17:07;;;;;;;7.00;2.00;;;;;;;5.92;78.84;100960.42;106530;1284;58816;-72
2022/10/20 01:20:25;;;;;;;7.30;2.30;;;;;;;5.78;79.32;100964.35;106566;1287;59362;-71
2022/10/20 01:23:29;;;;;;;6.90;2.00;;;;;;;5.68;79.53;100962.86;106629;1282;73854;-72
2022/10/20 01:26:53;;;;;;;7.30;2.00;;;;;;;5.61;80.30;100959.48;106660;1281;68740;-72
2022/10/20 01:29:59;;;;;;;7.40;2.20;;;;;;;5.54;80.47;100958.02;106619;1281;71623;-71
2022/10/20 01:32:56;;;;;;;8.80;2.30;;;;;;;5.47;80.91;100961.98;106546;1290;57876;-71
2022/10/20 01:35:54;;;;;;;7.90;2.30;;;;;;;5.39;80.85;100961.98;106639;1273;58174;-73
2022/10/20 01:38:54;;;;;;;7.10;2.30;;;;;;;5.31;81.51;100964.23;106660;1281;70446;-72
2022/10/20 01:41:59;;;;;;;7.00;2.60;;;;;;;5.23;81.82;100965.63;106622;1282;68839;-71
2022/10/20 01:44:48;;;;;;;7.10;2.10;;;;;;;5.15;82.18;100969.82;106475;1274;73135;-72
2022/10/20 01:47:35;;;;;;;7.10;2.30;;;;;;;5.06;82.18;100969.13;105759;1282;1002325;-72
2022/10/20 01:50:23;;;;;;;7.90;2.10;;;;;;;5.01;82.74;100973.02;106689;1280;60210;-72
2022/10/20 01:53:10;;;;;;;6.90;2.20;;;;;;;4.97;83.06;100976.70;106656;1282;74137;-72
2022/10/20 01:55:59;;;;;;;6.90;2.10;;;;;;;4.93;83.06;100969.80;106673;1281;67707;-71
2022/10/20 01:59:03;;;;;;;7.60;2.10;;;;;;;4.93;83.08;100973.48;106486;1284;72714;-72
2022/10/20 02:02:31;;;;;;;8.00;1.90;;;;;;;4.98;82.92;100972.95;106631;1281;60388;-71
2022/10/20 02:05:47;;;;;;;6.90;1.70;;;;;;;5.04;82.88;100966.38;106673;1282;61629;-72
2022/10/20 02:08:53;;;;;;;6.50;1.90;;;;;;;5.12;82.44;100970.65;106678;1282;73871;-72
2022/10/20 02:12:16;;;;;;;8.60;1.60;;;;;;;5.15;81.80;100968.23;106583;1277;66281;-71
2022/10/20 02:15:04;;;;;;;10.60;1.90;;;;;;;5.18;81.58;100965.65;106041;1287;71447;-71
2022/10/20 02:18:06;;;;;;;5.90;1.80;;;;;;;5.19;81.24;100961.56;106068;1286;57856;-72
2022/10/20 02:20:57;;;;;;;8.30;1.90;;;;;;;5.22;80.87;100963.39;106037;1288;61405;-71
2022/10/20 02:23:47;;;;;;;7.50;1.50;;;;;;;5.24;80.85;100961.52;106038;1286;72765;-71
2022/10/20 02:26:37;;;;;;;6.10;1.60;;;;;;;5.28;80.71;100961.71;106071;1287;67898;-72
2022/10/20 02:29:31;;;;;;;5.80;1.70;;;;;;;5.34;80.47;100962.38;106022;1290;74197;-72
2022/10/20 02:32:18;;;;;;;7.00;1.70;;;;;;;5.37;79.66;100965.23;106094;1289;57967;-72
2022/10/20 02:35:09;;;;;;;5.70;1.70;;;;;;;5.38;79.09;100969.20;106108;1287;60403;-72
2022/10/20 02:37:57;;;;;;;6.40;2.00;;;;;;;5.40;79.50;100967.55;106039;1290;74101;-71
2022/10/20 02:40:44;;;;;;;11.50;2.60;;;;;;;5.43;79.11;100961.28;106085;1285;67828;-71
2022/10/20 02:43:30;;;;;;;8.20;2.50;;;;;;;5.43;79.05;100963.54;106111;1288;73731;-72
2022/10/20 02:46:16;;;;;;;7.30;2.30;;;;;;;5.44;78.78;100963.34;106053;1291;59732;-72
2022/10/20 02:49:08;;;;;;;7.50;2.20;;;;;;;5.46;78.81;100965.89;106142;1288;61310;-72
2022/10/20 02:51:54;;;;;;;7.30;1.90;;;;;;;5.49;79.20;100967.89;106391;1285;73929;-70
2022/10/20 02:54:41;;;;;;;7.30;1.70;;;;;;;5.51;78.87;100967.65;106703;1274;67696;-71
2022/10/20 02:57:28;;;;;;;6.60;1.90;;;;;;;5.52;78.56;100963.03;106639;1282;73459;-71
2022/10/20 03:00:16;;;;;;;7.70;2.40;;;;;;;5.52;78.80;100961.25;106650;1280;57283;-71
2022/10/20 03:03:03;;;;;;;6.60;2.00;;;;;;;5.52;78.20;100961.77;106694;1281;61581;-72
2022/10/20 03:05:50;;;;;;;7.50;2.30;;;;;;;5.51;78.60;100960.05;106469;1281;73134;-72
2022/10/20 03:08:37;;;;;;;7.90;2.00;;;;;;;5.49;78.58;100962.44;106679;1281;66671;-72
2022/10/20 03:11:23;;;;;;;6.50;1.80;;;;;;;5.46;78.60;100962.73;106617;1281;72691;-72
2022/10/20 03:14:10;;;;;;;6.10;1.70;;;;;;;5.44;78.77;100964.39;106656;1282;59754;-72
2022/10/20 03:16:57;;;;;;;6.60;2.10;;;;;;;5.43;78.71;100967.60;106645;1281;61378;-72
2022/10/20 03:19:43;;;;;;;7.30;2.30;;;;;;;5.42;78.57;100963.77;106682;1273;73200;-71
2022/10/20 03:22:30;;;;;;;7.30;2.20;;;;;;;5.41;78.68;100967.70;106664;1281;67624;-71
2022/10/20 03:25:16;;;;;;;8.50;2.30;;;;;;;5.41;78.94;100971.21;106668;1289;73825;-70
2022/10/20 03:28:03;;;;;;;8.10;2.80;;;;;;;5.40;78.96;100973.38;106661;1281;57320;-71
2022/10/20 03:30:49;;;;;;;8.30;2.70;;;;;;;5.38;79.09;100975.36;106676;1281;61239;-71
2022/10/20 03:33:36;;;;;;;9.30;2.60;;;;;;;5.35;79.16;100981.34;106644;1280;73345;-72
2022/10/20 03:36:22;;;;;;;10.30;2.80;;;;;;;5.33;79.12;100978.23;106676;1275;67987;-71
2022/10/20 03:39:09;;;;;;;7.80;2.30;;;;;;;5.33;79.11;100981.74;106647;1281;72507;-70
2022/10/20 03:41:56;;;;;;;7.40;2.30;;;;;;;5.36;78.95;100986.77;106636;1274;59331;-71
2022/10/20 03:44:44;;;;;;;7.70;2.30;;;;;;;5.37;78.84;100987.05;106668;1281;61422;-72
2022/10/20 03:47:30;;;;;;;7.00;2.20;;;;;;;5.39;78.61;100986.42;106690;1274;73946;-72
2022/10/20 03:50:16;;;;;;;7.10;2.00;;;;;;;5.41;78.68;100993.91;106685;1281;67772;-72
2022/10/20 03:53:03;;;;;;;6.00;1.80;;;;;;;5.42;78.28;100995.48;106664;1275;72701;-72
2022/10/20 03:55:50;;;;;;;6.60;1.70;;;;;;;5.40;78.49;100996.06;106650;1281;57272;-71
2022/10/20 03:58:36;;;;;;;7.50;2.00;;;;;;;5.37;78.39;100990.72;106660;1282;60347;-71
2022/10/20 04:01:29;;;;;;;6.50;1.90;;;;;;;5.37;78.19;100990.22;106671;1281;71853;-72
2022/10/20 04:04:16;;;;;;;7.20;1.90;;;;;;;5.35;77.95;100988.00;106605;1282;67522;-73
2022/10/20 04:07:03;;;;;;;4.80;1.40;;;;;;;5.34;77.92;100992.65;106631;1280;73538;-73
2022/10/20 04:09:50;;;;;;;6.50;1.70;;;;;;;5.32;77.91;100989.72;106641;1280;57754;-73
2022/10/20 04:12:36;;;;;;;7.80;2.00;;;;;;;5.29;77.81;100995.98;106652;1284;60219;-73
2022/10/20 04:15:23;;;;;;;6.40;2.00;;;;;;;5.27;77.87;100993.43;106648;1281;73946;-73
2022/10/20 04:18:09;;;;;;;6.60;1.60;;;;;;;5.25;78.20;100994.05;106633;1281;66689;-72
2022/10/20 04:20:56;;;;;;;5.60;1.50;;;;;;;5.21;78.29;100997.02;106640;1281;71023;-74
2022/10/20 04:23:42;;;;;;;6.90;1.70;;;;;;;5.18;78.09;100997.34;106621;1281;59944;-72
2022/10/20 04:26:29;;;;;;;8.20;1.60;;;;;;;5.14;78.32;100996.44;106501;1284;60317;-72
2022/10/20 04:29:15;;;;;;;7.70;1.80;;;;;;;5.10;78.44;100990.95;106629;1273;73807;-71
2022/10/20 04:32:01;;;;;;;6.30;1.60;;;;;;;5.07;78.29;100984.20;106645;1282;69068;-71
2022/10/20 04:34:48;;;;;;;6.00;1.60;;;;;;;5.01;78.34;100979.33;106460;1283;72571;-73
2022/10/20 04:37:34;;;;;;;5.70;1.50;;;;;;;4.95;78.37;100983.10;106628;1281;57172;-72
2022/10/20 04:40:21;;;;;;;6.70;1.70;;;;;;;4.87;78.49;100979.02;106673;1274;60528;-73
2022/10/20 04:43:07;;;;;;;6.00;1.80;;;;;;;4.79;78.75;100976.70;106754;1274;72991;-72
2022/10/20 04:45:58;;;;;;;4.80;1.50;;;;;;;4.68;79.17;100974.30;107024;1275;66317;-75
2022/10/20 04:48:49;;;;;;;6.20;1.90;;;;;;;4.58;79.50;100973.30;106814;1277;72597;-74
2022/10/20 04:51:36;;;;;;;6.00;1.70;;;;;;;4.49;79.93;100974.30;106984;1275;58787;-73
2022/10/20 04:54:22;;;;;;;6.70;2.10;;;;;;;4.42;80.46;100975.83;106959;1279;58759;-74
2022/10/20 04:57:09;;;;;;;7.80;2.40;;;;;;;4.35;80.49;100975.73;106756;1275;73109;-72
2022/10/20 04:59:55;;;;;;;6.90;2.50;;;;;;;4.31;80.48;100973.95;106744;1282;67748;-73
2022/10/20 05:02:42;;;;;;;5.80;2.00;;;;;;;4.26;80.98;100972.89;106698;1289;72649;-74
2022/10/20 05:05:28;;;;;;;6.20;2.10;;;;;;;4.22;80.89;100970.95;106738;1275;57551;-73
2022/10/20 05:08:15;;;;;;;6.60;2.30;;;;;;;4.16;81.25;100969.04;106732;1281;60235;-72
2022/10/20 05:11:01;;;;;;;6.00;1.80;;;;;;;4.11;81.35;100970.47;106601;1278;74072;-74
2022/10/20 05:13:50;;;;;;;6.10;1.60;;;;;;;4.04;81.85;100969.98;106723;1283;67638;-73
2022/10/20 05:16:37;;;;;;;6.30;2.00;;;;;;;3.99;81.94;100971.21;106575;1275;72595;-72
2022/10/20 05:19:24;;;;;;;8.70;2.30;;;;;;;3.96;82.14;100970.65;106723;1282;58486;-74
2022/10/20 05:22:10;;;;;;;7.80;1.80;;;;;;;3.93;82.15;100976.19;106681;1282;61372;-73
2022/10/20 05:24:57;;;;;;;6.60;1.90;;;;;;;3.92;82.46;100977.80;106709;1281;74224;-72
2022/10/20 05:27:59;;;;;;;7.30;2.20;;;;;;;3.89;82.80;100976.33;106749;1281;67426;-73
2022/10/20 05:30:48;;;;;;;7.90;2.20;;;;;;;3.86;82.84;100976.77;106730;1273;72431;-73
2022/10/20 05:33:35;;;;;;;5.70;2.00;;;;;;;3.84;83.20;100981.41;106730;1275;57332;-72
2022/10/20 05:36:25;;;;;;;5.90;2.10;;;;;;;3.81;83.39;100979.59;106738;1273;58639;-74
2022/10/20 05:39:14;;;;;;;6.60;2.20;;;;;;;3.80;83.22;100982.46;106731;1282;72950;-73
2022/10/20 05:42:00;;;;;;;7.00;2.30;;;;;;;3.79;83.42;100984.57;106744;1274;66366;-74
2022/10/20 05:44:46;;;;;;;6.70;2.20;;;;;;;3.80;83.53;100987.86;106694;1281;73662;-74
2022/10/20 05:47:33;;;;;;;9.20;2.30;;;;;;;3.82;83.68;100988.34;106292;1281;1002603;-73
2022/10/20 05:50:20;;;;;;;7.50;2.70;;;;;;;3.86;84.03;100987.48;106721;1275;61168;-73
2022/10/20 05:53:07;;;;;;;7.80;2.50;;;;;;;3.92;83.69;100989.55;106703;1282;72882;-73
2022/10/20 05:55:53;;;;;;;7.80;2.50;;;;;;;4.01;83.49;100989.58;106711;1281;69019;-73
2022/10/20 05:58:41;;;;;;;7.90;2.00;;;;;;;4.11;83.39;100990.11;106699;1273;73962;-72
2022/10/20 06:01:49;;;;;;;10.50;2.60;;;;;;;4.21;83.20;100987.48;106599;1281;57177;-72
2022/10/20 06:04:35;;;;;;;8.00;2.20;;;;;;;4.32;82.77;100994.27;106664;1274;61508;-74
2022/10/20 06:07:22;;;;;;;8.10;2.20;;;;;;;4.45;82.54;100991.54;106704;1281;73955;-73
2022/10/20 06:10:08;;;;;;;8.80;2.50;;;;;;;4.56;82.27;100993.73;106732;1282;65151;-73
2022/10/20 06:12:55;;;;;;;6.60;2.40;;;;;;;4.66;81.81;100990.53;106673;1274;72389;-72
2022/10/20 06:15:41;;;;;;;8.60;2.50;;;;;;;4.75;81.52;100987.91;106710;1275;57160;-73
2022/10/20 06:18:28;;;;;;;7.50;2.30;;;;;;;4.83;81.25;100992.88;106700;1281;60292;-73
2022/10/20 06:21:18;;;;;;;14.70;3.50;;;;;;;4.95;80.69;100997.36;106698;1275;73986;-73
2022/10/20 06:24:06;;;;;;;12.80;2.60;;;;;;;5.06;80.53;100996.22;106765;1282;67728;-73
2022/10/20 06:26:52;;;;;;;7.20;2.20;;;;;;;5.13;80.02;101001.23;106561;1275;73448;-73
2022/10/20 06:29:38;;;;;;;9.50;2.70;;;;;;;5.18;79.74;101003.66;106572;1277;57250;-73
2022/10/20 06:32:25;;;;;;;8.40;2.40;;;;;;;5.22;79.47;101007.36;106587;1280;58830;-72
2022/10/20 06:35:11;;;;;;;8.80;2.40;;;;;;;5.24;79.32;101005.86;106544;1278;72981;-72
2022/10/20 06:37:57;;;;;;;8.40;2.30;;;;;;;5.31;79.52;101005.92;106555;1282;67602;-72
2022/10/20 06:40:44;;;;;;;7.50;2.50;;;;;;;5.48;79.73;101009.67;106558;1285;73533;-73
2022/10/20 06:43:30;;;;;;;8.50;2.40;;;;;;;5.64;79.12;101014.61;106577;1282;57319;-73
2022/10/20 06:46:17;;;;;;;6.80;2.30;;;;;;;5.87;79.08;101011.92;106641;1281;61215;-74
2022/10/20 06:49:06;;;;;;;8.90;2.60;;;;;;;6.13;78.34;101010.45;106603;1286;71383;-74
2022/10/20 06:51:53;;;;;;;8.40;2.80;;;;;;;6.37;77.45;101005.14;106647;1275;67565;-74
2022/10/20 06:54:40;;;;;;;8.50;2.70;;;;;;;6.63;75.83;101008.35;106673;1282;73490;-74
2022/10/20 06:57:26;;;;;;;7.20;2.20;;;;;;;6.91;75.11;101005.34;105969;1282;1002506;-74
2022/10/20 07:00:13;;;;;;;6.20;2.20;;;;;;;7.14;73.91;101007.92;106581;1284;61811;-73
2022/10/20 07:03:00;;;;;;;7.70;2.10;;;;;;;7.44;73.19;101014.44;106724;1281;71473;-73
2022/10/20 07:05:47;;;;;;;9.80;2.20;;;;;;;7.71;71.83;101015.39;106688;1283;67728;-77
2022/10/20 07:08:35;;;;;;;7.20;2.40;;;;;;;8.09;71.06;101015.73;106601;1281;70697;-77
2022/10/20 07:11:26;;;;;;;8.30;2.70;;;;;;;9.21;68.23;101011.80;106703;1282;57832;-77
2022/10/20 07:14:13;;;;;;;6.80;2.90;;;;;;;10.78;64.96;101008.08;106596;1282;59120;-73
2022/10/20 07:16:59;;;;;;;7.50;2.50;;;;;;;12.22;59.48;101003.77;106709;1281;71568;-73
2022/10/20 07:19:46;;;;;;;7.60;2.20;;;;;;;13.71;55.04;100999.95;106713;1281;68680;-74
2022/10/20 07:22:35;;;;;;;8.30;2.10;;;;;;;15.38;50.98;100993.02;106742;1281;71773;-74
2022/10/20 07:25:22;;;;;;;8.40;2.00;;;;;;;16.84;47.02;100994.11;106695;1289;58360;-74
2022/10/20 07:28:09;;;;;;;9.50;2.40;;;;;;;18.16;43.00;100995.01;106710;1275;61244;-74
2022/10/20 07:30:56;;;;;;;8.10;1.80;;;;;;;19.17;40.10;100993.17;106719;1275;74079;-74
2022/10/20 07:33:43;;;;;;;7.00;1.70;;;;;;;20.08;37.58;100991.54;106658;1282;67893;-74
2022/10/20 07:36:32;;;;;;;5.80;2.10;;;;;;;20.82;36.10;100990.36;106682;1282;73677;-74
2022/10/20 07:39:22;;;;;;;7.10;1.50;;;;;;;21.42;33.84;100987.98;106677;1276;57369;-74
2022/10/20 07:42:08;;;;;;;6.60;1.70;;;;;;;22.09;33.21;100988.48;106704;1281;61225;-73
2022/10/20 07:44:55;;;;;;;5.50;1.60;;;;;;;22.68;31.68;100994.62;106703;1283;74245;-74
2022/10/20 07:47:41;;;;;;;6.30;1.50;;;;;;;23.22;30.63;100987.02;106710;1275;67763;-74
2022/10/20 07:50:33;;;;;;;6.80;1.30;;;;;;;23.70;30.00;100982.23;106715;1282;71013;-75
2022/10/20 07:53:20;;;;;;;5.10;1.20;;;;;;;24.03;28.38;100984.50;106713;1282;57755;-73
2022/10/20 07:56:07;;;;;;;6.90;1.30;;;;;;;24.07;28.07;100981.34;106707;1273;60282;-75
2022/10/20 07:58:53;;;;;;;5.10;1.30;;;;;;;24.40;27.93;100984.95;106671;1282;73000;-74
2022/10/20 08:01:40;;;;;;;4.40;1.00;;;;;;;24.44;27.06;100984.66;106720;1281;68902;-74
2022/10/20 08:04:30;;;;;;;5.10;1.20;;;;;;;24.74;27.08;100981.89;106724;1282;72574;-74
2022/10/20 08:07:16;;;;;;;4.90;1.10;;;;;;;25.07;26.37;100983.11;106717;1282;57260;-74
2022/10/20 08:10:04;;;;;;;5.50;1.50;;;;;;;25.29;26.34;100984.36;106683;1273;60219;-75
2022/10/20 08:12:51;;;;;;;7.80;1.40;;;;;;;25.46;25.38;100976.33;106568;1279;202338;-74
2022/10/20 08:15:37;;;;;;;6.30;1.30;;;;;;;25.64;25.65;100982.83;106700;1283;68545;-75
2022/10/20 08:18:38;;;;;;;5.60;1.40;;;;;;;25.78;24.46;100982.98;106678;1275;72630;-74
2022/10/20 08:21:27;;;;;;;6.00;1.20;;;;;;;25.88;25.00;100979.50;106708;1282;57922;-74
2022/10/20 08:24:13;;;;;;;5.60;1.90;;;;;;;26.18;24.81;100973.80;106576;1276;61542;-74
2022/10/20 08:27:01;;;;;;;5.10;1.30;;;;;;;26.44;24.65;100970.92;106706;1281;71627;-75
2022/10/20 08:29:47;;;;;;;5.20;1.20;;;;;;;26.63;24.22;100972.85;106702;1281;68838;-75
2022/10/20 08:32:52;;;;;;;6.20;1.20;;;;;;;26.82;23.99;100969.55;106592;1285;73695;-75
2022/10/20 08:35:39;;;;;;;5.90;1.20;;;;;;;26.91;23.87;100964.88;106696;1282;58966;-76
2022/10/20 08:38:25;;;;;;;5.00;1.20;;;;;;;27.17;23.24;100962.59;106593;1285;60335;-79
2022/10/20 08:41:24;;;;;;;5.20;1.30;;;;;;;27.29;23.04;100961.26;106695;1282;72836;-78
2022/10/20 08:44:22;;;;;;;4.90;1.30;;;;;;;27.31;23.19;100965.46;106744;1282;67741;-78
2022/10/20 08:47:36;;;;;;;5.20;1.30;;;;;;;27.20;23.15;100967.27;106545;1285;73524;-78
2022/10/20 08:50:27;;;;;;;5.30;1.80;;;;;;;27.23;23.35;100968.98;106726;1281;57357;-76
2022/10/20 08:53:14;;;;;;;6.70;1.80;;;;;;;27.50;23.25;100969.00;106669;1288;60637;-78
2022/10/20 08:56:00;;;;;;;7.70;2.50;;;;;;;27.38;23.29;100972.04;106729;1289;74390;-77
2022/10/20 08:58:47;;;;;;;5.70;1.60;;;;;;;26.61;23.87;100976.80;106718;1281;67675;-77
2022/10/20 09:01:35;;;;;;;6.70;1.40;;;;;;;26.92;23.81;100969.41;106621;1282;72572;-76
2022/10/20 09:04:36;;;;;;;6.50;2.80;;;;;;;27.15;23.62;100964.22;106688;1283;57755;-77
2022/10/20 09:07:36;;;;;;;6.70;2.10;;;;;;;26.74;23.70;100967.64;106457;1283;59029;-78
2022/10/20 09:10:49;;;;;;;5.40;1.30;;;;;;;26.94;23.39;100964.80;106720;1281;72833;-77
2022/10/20 09:13:36;;;;;;;5.70;1.60;;;;;;;27.34;23.00;100966.08;106616;1286;68464;-77
2022/10/20 09:16:27;;;;;;;6.00;1.70;;;;;;;27.79;22.58;100964.20;106779;1281;73921;-78
2022/10/20 09:19:28;;;;;;;5.10;1.30;;;;;;;28.15;22.24;100968.17;106814;1281;59278;-78
2022/10/20 09:22:16;;;;;;;5.30;1.30;;;;;;;28.40;22.17;100967.20;106720;1290;60250;-78
2022/10/20 09:25:04;;;;;;;5.00;1.20;;;;;;;28.65;21.54;100961.70;106438;1281;73041;-78
2022/10/20 09:27:51;;;;;;;5.50;1.20;;;;;;;28.88;21.48;100957.85;106626;1283;66388;-78
2022/10/20 09:30:37;;;;;;;4.70;1.10;;;;;;;28.82;21.22;100953.79;106691;1283;73636;-77
2022/10/20 09:33:34;;;;;;;4.90;1.20;;;;;;;29.14;21.20;100951.40;106703;1274;58015;-78
2022/10/20 09:36:26;;;;;;;5.10;1.50;;;;;;;29.15;20.65;100950.85;106616;1282;58778;-79
2022/10/20 09:39:22;;;;;;;5.60;1.20;;;;;;;28.83;21.20;100948.14;106692;1274;71541;-76
2022/10/20 09:42:30;;;;;;;5.20;1.10;;;;;;;28.55;21.53;100951.23;106595;1281;68607;-77
2022/10/20 09:45:27;;;;;;;5.00;1.00;;;;;;;27.21;22.18;100946.45;106573;1276;71014;-77
2022/10/20 09:48:22;;;;;;;4.40;1.00;;;;;;;26.83;23.49;100942.66;106722;1283;57716;-77
2022/10/20 09:51:19;;;;;;;4.90;1.20;;;;;;;26.83;23.18;100943.84;106766;1273;61106;-77
2022/10/20 09:54:16;;;;;;;5.00;1.30;;;;;;;25.43;24.49;100947.67;106622;1282;74246;-76
2022/10/20 09:57:07;;;;;;;5.40;1.50;;;;;;;25.52;24.66;100941.08;106620;1281;67540;-78
2022/10/20 09:59:56;;;;;;;4.40;1.10;;;;;;;23.68;26.11;100943.02;106712;1282;73800;-78
2022/10/20 10:03:18;;;;;;;5.00;1.20;;;;;;;22.04;28.46;100947.81;106616;1275;57295;-76
2022/10/20 10:06:20;;;;;;;5.70;1.60;;;;;;;22.06;28.92;100937.77;106474;1278;60132;-76
2022/10/20 10:09:34;;;;;;;5.40;1.40;;;;;;;24.26;27.17;100932.34;106715;1267;73918;-77
2022/10/20 10:12:23;;;;;;;6.10;1.90;;;;;;;25.22;25.28;100934.91;106702;1275;68995;-77
2022/10/20 10:15:21;;;;;;;6.90;1.50;;;;;;;23.31;26.78;100932.92;106424;1281;72858;-75
2022/10/20 10:18:19;;;;;;;5.80;1.80;;;;;;;21.60;29.02;100934.91;106689;1275;59149;-78
2022/10/20 10:21:14;;;;;;;5.50;1.60;;;;;;;20.84;30.49;100932.73;106606;1282;60403;-76
2022/10/20 10:24:03;;;;;;;7.40;1.70;;;;;;;21.08;30.13;100930.13;106631;1281;74043;-76
2022/10/20 10:26:54;;;;;;;5.10;1.20;;;;;;;20.76;30.55;100926.73;106596;1281;68835;-76
2022/10/20 10:29:40;;;;;;;8.60;2.00;;;;;;;19.93;32.03;100927.13;106604;1280;70727;-78
2022/10/20 10:32:29;;;;;;;7.50;2.60;;;;;;;19.42;33.01;100925.92;106614;1290;58969;-76
2022/10/20 10:35:41;;;;;;;5.50;1.50;;;;;;;18.13;33.98;100926.25;106711;1282;61172;-76
2022/10/20 10:38:28;;;;;;;5.50;1.50;;;;;;;17.28;35.82;100932.26;106681;1273;72861;-76
2022/10/20 10:41:49;;;;;;;5.10;1.30;;;;;;;16.91;37.12;100932.58;106671;1281;66149;-76
2022/10/20 10:45:20;;;;;;;10.80;5.70;;;;;;;16.58;38.11;100926.73;106653;1279;71070;-75
2022/10/20 10:48:42;;;;;;;6.50;1.80;;;;;;;19.14;34.15;100917.49;106684;1290;57681;-73
2022/10/20 10:51:51;;;;;;;6.10;1.50;;;;;;;20.69;30.87;100907.14;106706;1290;60148;-73
2022/10/20 10:54:53;;;;;;;5.70;1.50;;;;;;;21.01;30.42;100906.56;106713;1283;71545;-74
2022/10/20 10:58:45;;;;;;;4.90;1.20;;;;;;;22.51;28.27;100898.51;106717;1289;67944;-74
2022/10/20 11:02:19;;;;;;;5.20;1.10;;;;;;;21.03;29.23;100905.59;106072;1288;71689;-73
2022/10/20 11:05:53;;;;;;;6.60;1.30;;;;;;;19.46;32.02;100905.16;106030;1295;58011;-73
2022/10/20 11:09:29;;;;;;;5.60;1.30;;;;;;;18.40;33.62;100903.63;105561;1295;61312;-72
2022/10/20 11:12:36;;;;;;;4.80;1.20;;;;;;;17.42;35.47;100912.47;105564;1290;72864;-73
2022/10/20 11:15:53;;;;;;;5.50;1.30;;;;;;;16.57;36.76;100905.88;105555;1297;67917;-73
2022/10/20 11:19:14;;;;;;;5.00;1.20;;;;;;;15.91;37.90;100901.23;105524;1303;71172;-72
2022/10/20 11:22:22;;;;;;;4.40;1.10;;;;;;;16.21;39.16;100900.80;105553;1288;57619;-72
2022/10/20 11:25:17;;;;;;;5.10;1.40;;;;;;;17.72;36.27;100895.83;105573;1289;58755;-72
2022/10/20 11:28:24;;;;;;;5.50;1.30;;;;;;;18.56;34.19;100883.30;105537;1296;74021;-73
2022/10/20 11:31:33;;;;;;;5.50;1.10;;;;;;;19.35;32.97;100875.69;105556;1287;68691;-74
2022/10/20 11:34:51;;;;;;;5.60;1.50;;;;;;;20.21;31.75;100868.25;105521;1303;73580;-74
2022/10/20 11:37:43;;;;;;;4.80;1.20;;;;;;;21.00;30.30;100868.11;105751;1287;57948;-73
2022/10/20 11:40:38;;;;;;;5.00;1.30;;;;;;;21.43;29.08;100863.39;105957;1290;61409;-73
2022/10/20 11:43:34;;;;;;;6.00;1.30;;;;;;;21.60;28.44;100856.64;105944;1298;72743;-75
2022/10/20 11:46:59;;;;;;;5.10;1.20;;;;;;;21.37;28.96;100852.68;106612;1282;67650;-74
2022/10/20 11:49:46;;;;;;;6.60;1.60;;;;;;;21.13;29.04;100853.11;106626;1285;73623;-74
2022/10/20 11:53:16;;;;;;;5.80;1.30;;;;;;;20.89;29.23;100855.59;106594;1278;58013;-73
2022/10/20 11:56:38;;;;;;;5.30;1.40;;;;;;;20.42;29.60;100847.21;105944;1298;60667;-73
2022/10/20 11:59:37;;;;;;;5.10;1.30;;;;;;;19.99;30.37;100843.77;106027;1291;72916;-73
2022/10/20 12:02:51;;;;;;;5.00;1.20;;;;;;;20.02;30.59;100837.22;105995;1291;67722;-73
2022/10/20 12:06:21;;;;;;;5.10;1.30;;;;;;;20.05;31.01;100833.86;105995;1291;72836;-74
2022/10/20 12:09:22;;;;;;;5.10;1.30;;;;;;;20.00;31.02;100828.15;106016;1289;57184;-74
2022/10/20 12:12:23;;;;;;;4.70;1.30;;;;;;;19.82;30.92;100829.31;106022;1282;58720;-73
2022/10/20 12:15:23;;;;;;;5.20;1.40;;;;;;;19.39;30.99;100827.05;105994;1291;72973;-73
2022/10/20 12:18:36;;;;;;;5.70;1.40;;;;;;;19.18;31.64;100821.30;105980;1292;67785;-72
2022/10/20 12:21:54;;;;;;;5.80;1.60;;;;;;;18.82;32.03;100815.13;105984;1288;73628;-72
2022/10/20 12:24:50;;;;;;;8.10;1.90;;;;;;;18.18;32.75;100818.58;105995;1289;57833;-71
2022/10/20 12:27:36;;;;;;;6.70;1.70;;;;;;;17.89;33.70;100820.36;106033;1282;61235;-72
2022/10/20 12:30:38;;;;;;;6.70;1.60;;;;;;;17.66;34.11;100818.20;105997;1288;73751;-73
2022/10/20 12:33:53;;;;;;;6.70;1.40;;;;;;;17.26;34.61;100822.86;105786;1282;1002288;-72
2022/10/20 12:36:40;;;;;;;5.20;1.40;;;;;;;16.79;35.45;100823.14;106699;1281;73767;-73
2022/10/20 12:39:28;;;;;;;5.70;1.50;;;;;;;16.47;35.95;100819.89;106589;1281;57799;-73
2022/10/20 12:42:26;;;;;;;5.90;1.50;;;;;;;15.97;36.83;100816.80;106721;1289;60333;-74
2022/10/20 12:45:19;;;;;;;5.10;1.20;;;;;;;15.59;37.90;100817.39;106632;1281;72867;-74
2022/10/20 12:48:17;;;;;;;6.70;1.50;;;;;;;15.35;38.73;100814.12;106719;1282;67646;-73
2022/10/20 12:51:19;;;;;;;6.70;1.60;;;;;;;14.94;39.06;100810.23;106593;1283;72319;-72
2022/10/20 12:54:28;;;;;;;5.10;1.40;;;;;;;14.70;39.89;100808.34;105785;1288;1002192;-73
2022/10/20 12:57:40;;;;;;;5.30;1.30;;;;;;;14.50;40.52;100811.75;106559;1284;60365;-72
2022/10/20 13:00:26;;;;;;;6.80;1.60;;;;;;;14.12;41.16;100812.64;106545;1277;72826;-71
2022/10/20 13:03:31;;;;;;;5.60;1.70;;;;;;;13.92;41.62;100802.65;106564;1280;67498;-73
2022/10/20 13:06:23;;;;;;;5.50;1.50;;;;;;;13.89;41.83;100804.91;106534;1285;73520;-73
2022/10/20 13:09:21;;;;;;;5.90;1.70;;;;;;;13.66;42.16;100803.16;106550;1280;59010;-72
2022/10/20 13:12:28;;;;;;;6.00;1.50;;;;;;;13.46;42.76;100804.86;106587;1282;58961;-72
2022/10/20 13:15:18;;;;;;;5.60;1.50;;;;;;;13.31;43.21;100804.22;106408;1285;73488;-73
2022/10/20 13:18:11;;;;;;;5.30;1.50;;;;;;;13.22;43.33;100806.01;106332;1281;66685;-74
2022/10/20 13:21:24;;;;;;;4.90;1.40;;;;;;;13.09;43.50;100805.02;106592;1282;71311;-73
2022/10/20 13:24:32;;;;;;;5.20;1.50;;;;;;;12.95;44.04;100802.51;106547;1288;57829;-72
2022/10/20 13:27:22;;;;;;;5.90;1.40;;;;;;;12.86;44.92;100806.36;106572;1285;60184;-72